createdAt,value
2018-05-23T00:01:58.912Z,8.30
2018-05-23T00:04:26.317Z,6.37
2018-05-23T00:06:53.737Z,5.90
2018-05-23T00:09:21.226Z,6.03
2018-05-23T00:11:48.685Z,5.85
2018-05-23T00:14:16.089Z,5.22
2018-05-23T00:16:43.584Z,5.20
2018-05-23T00:19:10.996Z,4.30
2018-05-23T00:21:38.494Z,7.05
2018-05-23T00:24:05.904Z,6.68
2018-05-23T00:26:33.312Z,5.45
2018-05-23T00:29:00.716Z,6.37
2018-05-23T00:31:28.138Z,4.95
2018-05-23T00:33:55.568Z,4.05
2018-05-23T00:36:22.981Z,5.93
2018-05-23T00:38:50.387Z,4.35
2018-05-23T00:41:17.863Z,5.57
2018-05-23T00:43:45.239Z,5.50
2018-05-23T00:46:12.656Z,4.25
2018-05-23T00:48:40.074Z,4.72
2018-05-23T00:51:07.489Z,3.53
2018-05-23T00:53:34.916Z,3.10
2018-05-23T00:56:02.372Z,7.15
2018-05-23T00:58:29.788Z,6.57
2018-05-23T01:00:57.200Z,4.50
2018-05-23T01:03:24.621Z,6.95
2018-05-23T01:05:52.036Z,5.18
2018-05-23T01:08:19.544Z,3.12
2018-05-23T01:10:46.978Z,2.87
2018-05-23T01:13:14.393Z,2.85
2018-05-23T01:15:41.808Z,3.58
2018-05-23T01:18:09.256Z,3.17
2018-05-23T01:20:36.713Z,3.35
2018-05-23T01:23:04.120Z,3.87
2018-05-23T01:25:31.621Z,4.62
2018-05-23T01:27:59.080Z,3.45
2018-05-23T01:30:26.493Z,6.35
2018-05-23T01:32:53.901Z,6.07
2018-05-23T01:35:21.353Z,4.28
2018-05-23T01:37:48.815Z,5.20
2018-05-23T01:40:16.260Z,4.75
2018-05-23T01:42:43.668Z,4.12
2018-05-23T01:45:11.075Z,3.28
2018-05-23T01:47:38.492Z,4.45
2018-05-23T01:50:05.928Z,3.67
2018-05-23T01:52:33.436Z,5.12
2018-05-23T01:55:00.849Z,4.15
2018-05-23T01:57:28.252Z,3.28
2018-05-23T01:59:55.664Z,4.28
2018-05-23T02:02:23.156Z,5.45
2018-05-23T02:04:50.609Z,3.42
2018-05-23T02:07:18.020Z,4.22
2018-05-23T02:09:45.421Z,4.00
2018-05-23T02:12:12.840Z,2.28
2018-05-23T02:14:40.325Z,3.00
2018-05-23T02:17:07.753Z,3.12
2018-05-23T02:19:35.156Z,5.03
2018-05-23T02:22:02.589Z,3.65
2018-05-23T02:24:30.013Z,2.90
2018-05-23T02:26:57.420Z,5.15
2018-05-23T02:29:24.860Z,3.60
2018-05-23T02:31:52.303Z,3.33
2018-05-23T02:34:19.714Z,4.85
2018-05-23T02:36:47.174Z,3.45
2018-05-23T02:39:14.585Z,5.10
2018-05-23T02:41:42.001Z,3.83
2018-05-23T02:44:09.495Z,3.47
2018-05-23T02:46:36.904Z,4.07
2018-05-23T02:49:04.317Z,3.50
2018-05-23T02:51:31.734Z,3.78
2018-05-23T02:53:59.208Z,3.70
2018-05-23T02:56:26.629Z,2.50
2018-05-23T02:58:54.039Z,2.90
2018-05-23T03:01:21.450Z,2.78
2018-05-23T03:03:48.856Z,4.78
2018-05-23T03:06:16.277Z,2.95
2018-05-23T03:08:43.688Z,5.32
2018-05-23T03:11:11.143Z,3.17
2018-05-23T03:13:38.543Z,3.08
2018-05-23T03:16:05.966Z,3.65
2018-05-23T03:18:33.388Z,2.42
2018-05-23T03:21:00.805Z,2.70
2018-05-23T03:23:28.212Z,3.25
2018-05-23T03:25:55.628Z,3.08
2018-05-23T03:28:23.036Z,3.90
2018-05-23T03:30:50.466Z,2.75
2018-05-23T03:33:17.899Z,3.30
2018-05-23T03:35:45.302Z,4.75
2018-05-23T03:38:12.725Z,2.95
2018-05-23T03:40:40.130Z,3.37
2018-05-23T03:43:07.550Z,3.03
2018-05-23T03:45:34.962Z,3.47
2018-05-23T03:48:02.375Z,1.90
2018-05-23T03:50:29.776Z,1.95
2018-05-23T03:52:57.221Z,4.00
2018-05-23T03:55:24.794Z,5.10
2018-05-23T03:57:52.117Z,4.62
2018-05-23T04:00:31.517Z,6.55
2018-05-23T04:03:10.597Z,5.05
2018-05-23T04:05:50.956Z,4.10
2018-05-23T04:08:18.367Z,3.37
2018-05-23T04:10:45.781Z,5.55
2018-05-23T04:13:13.196Z,2.65
2018-05-23T04:15:40.599Z,4.12
2018-05-23T04:18:08.015Z,3.12
2018-05-23T04:20:35.433Z,4.37
2018-05-23T04:23:02.840Z,4.87
2018-05-23T04:25:30.297Z,3.12
2018-05-23T04:27:57.716Z,4.15
2018-05-23T04:30:25.112Z,3.28
2018-05-23T04:32:52.544Z,5.72
2018-05-23T04:35:19.956Z,4.12
2018-05-23T04:37:47.369Z,5.10
2018-05-23T04:40:14.775Z,5.40
2018-05-23T04:42:42.187Z,4.35
2018-05-23T04:45:09.596Z,4.37
2018-05-23T04:47:37.029Z,4.45
2018-05-23T04:50:04.540Z,5.15
2018-05-23T04:52:31.990Z,7.22
2018-05-23T04:54:59.409Z,7.93
2018-05-23T04:57:26.812Z,4.68
2018-05-23T04:59:54.230Z,5.90
2018-05-23T05:02:21.636Z,6.60
2018-05-23T05:04:49.058Z,4.57
2018-05-23T05:07:16.513Z,7.50
2018-05-23T05:09:43.881Z,7.32
2018-05-23T05:12:11.284Z,4.87
2018-05-23T05:14:38.695Z,5.87
2018-05-23T05:17:06.106Z,5.22
2018-05-23T05:19:33.523Z,6.60
2018-05-23T05:22:00.963Z,6.32
2018-05-23T05:24:28.373Z,5.85
2018-05-23T05:26:55.883Z,6.40
2018-05-23T05:29:23.304Z,7.47
2018-05-23T05:31:50.723Z,7.47
2018-05-23T05:34:18.136Z,4.78
2018-05-23T05:36:45.586Z,7.65
2018-05-23T05:39:13.009Z,4.12
2018-05-23T05:41:40.412Z,5.00
2018-05-23T05:44:07.839Z,4.20
2018-05-23T05:46:35.248Z,4.90
2018-05-23T05:49:02.760Z,6.00
2018-05-23T05:51:30.205Z,7.37
2018-05-23T05:53:57.664Z,6.57
2018-05-23T05:56:25.077Z,6.47
2018-05-23T05:58:52.585Z,5.30
2018-05-23T06:01:20.031Z,6.15
2018-05-23T06:03:47.493Z,7.40
2018-05-23T06:06:14.900Z,6.22
2018-05-23T06:08:42.309Z,6.00
2018-05-23T06:11:09.725Z,5.30
2018-05-23T06:13:37.132Z,6.32
2018-05-23T06:16:04.568Z,5.40
2018-05-23T06:18:31.978Z,8.02
2018-05-23T06:20:59.475Z,7.45
2018-05-23T06:23:26.888Z,6.25
2018-05-23T06:25:54.411Z,6.95
2018-05-23T06:28:21.849Z,7.15
2018-05-23T06:30:49.261Z,6.45
2018-05-23T06:33:16.680Z,5.40
2018-05-23T06:35:44.109Z,7.68
2018-05-23T06:38:11.512Z,5.28
2018-05-23T06:40:39.012Z,9.02
2018-05-23T06:43:06.477Z,7.15
2018-05-23T06:45:33.889Z,6.72
2018-05-23T06:48:01.310Z,5.22
2018-05-23T06:50:28.721Z,7.15
2018-05-23T06:52:56.160Z,7.12
2018-05-23T06:55:23.650Z,6.43
2018-05-23T06:57:51.057Z,8.88
2018-05-23T07:00:18.553Z,7.62
2018-05-23T07:02:45.958Z,5.93
2018-05-23T07:05:13.381Z,6.30
2018-05-23T07:07:40.829Z,7.78
2018-05-23T07:10:08.250Z,7.72
2018-05-23T07:12:35.664Z,14.10
2018-05-23T07:15:03.095Z,9.40
2018-05-23T07:17:30.512Z,13.62
2018-05-23T07:19:58.004Z,14.63
2018-05-23T07:22:25.420Z,10.90
2018-05-23T07:24:52.849Z,11.73
2018-05-23T07:27:20.256Z,14.98
2018-05-23T07:29:47.685Z,15.73
2018-05-23T07:32:15.177Z,15.68
2018-05-23T07:34:42.648Z,14.93
2018-05-23T07:37:10.043Z,16.65
2018-05-23T07:39:37.536Z,10.45
2018-05-23T07:42:04.996Z,12.48
2018-05-23T07:44:32.417Z,10.70
2018-05-23T07:46:59.852Z,11.07
2018-05-23T07:49:27.265Z,12.45
2018-05-23T07:51:54.693Z,20.67
2018-05-23T07:54:22.108Z,21.90
2018-05-23T07:56:49.534Z,19.30
2018-05-23T07:59:16.952Z,19.23
2018-05-23T08:01:44.446Z,15.98
2018-05-23T08:04:11.895Z,17.42
2018-05-23T08:06:39.349Z,21.48
2018-05-23T08:09:06.772Z,17.75
2018-05-23T08:11:34.196Z,18.48
2018-05-23T08:14:01.608Z,17.02
2018-05-23T08:16:29.037Z,21.87
2018-05-23T08:18:56.456Z,13.50
2018-05-23T08:21:23.889Z,18.62
2018-05-23T08:23:51.338Z,17.90
2018-05-23T08:26:18.753Z,19.27
2018-05-23T08:28:46.256Z,18.20
2018-05-23T08:31:13.680Z,17.62
2018-05-23T08:33:41.095Z,33.08
2018-05-23T08:36:08.525Z,24.30
2018-05-23T08:38:35.956Z,19.92
2018-05-23T08:41:03.376Z,20.75
2018-05-23T08:43:30.800Z,20.95
2018-05-23T08:45:58.304Z,27.87
2018-05-23T08:48:25.795Z,20.80
2018-05-23T08:50:53.213Z,28.42
2018-05-23T08:53:20.731Z,30.67
2018-05-23T08:55:48.211Z,38.25
2018-05-23T08:58:15.702Z,30.17
2018-05-23T09:00:43.236Z,34.45
2018-05-23T09:03:10.745Z,34.35
2018-05-23T09:05:38.232Z,33.67
2018-05-23T09:08:05.652Z,33.40
2018-05-23T09:10:33.213Z,45.20
2018-05-23T09:13:00.776Z,38.88
2018-05-23T09:15:28.215Z,37.53
2018-05-23T09:17:55.641Z,35.75
2018-05-23T09:20:23.232Z,48.20
2018-05-23T09:22:50.662Z,34.65
2018-05-23T09:25:18.080Z,42.08
2018-05-23T09:27:45.496Z,42.60
2018-05-23T09:30:12.913Z,38.42
2018-05-23T09:32:40.348Z,33.25
2018-05-23T09:35:07.780Z,39.38
2018-05-23T09:37:35.218Z,48.78
2018-05-23T09:40:02.639Z,45.58
2018-05-23T09:42:30.073Z,44.92
2018-05-23T09:44:57.497Z,44.83
2018-05-23T09:47:24.928Z,35.60
2018-05-23T09:49:52.362Z,34.00
2018-05-23T09:52:19.792Z,57.42
2018-05-23T09:54:48.282Z,52.42
2018-05-23T09:57:15.712Z,32.70
2018-05-23T09:59:43.132Z,48.05
2018-05-23T10:02:10.559Z,35.28
2018-05-23T10:04:37.999Z,50.90
2018-05-23T10:07:05.420Z,42.42
2018-05-23T10:09:32.914Z,57.90
2018-05-23T10:12:00.353Z,42.88
2018-05-23T10:14:27.793Z,54.47
2018-05-23T10:16:56.418Z,49.08
2018-05-23T10:19:23.860Z,99.40
2018-05-23T10:21:51.284Z,68.65
2018-05-23T10:24:18.728Z,59.10
2018-05-23T10:26:46.152Z,38.85
2018-05-23T10:29:13.577Z,53.28
2018-05-23T10:31:41.016Z,50.05
2018-05-23T10:34:08.992Z,68.40
2018-05-23T10:36:36.440Z,76.35
2018-05-23T10:39:03.920Z,54.75
2018-05-23T10:41:31.289Z,53.85
2018-05-23T10:43:58.704Z,66.82
2018-05-23T10:46:26.140Z,75.93
2018-05-23T10:48:53.552Z,58.55
2018-05-23T10:51:20.989Z,69.55
2018-05-23T10:53:48.408Z,53.47
2018-05-23T10:56:15.836Z,57.83
2018-05-23T10:58:43.303Z,76.43
2018-05-23T11:01:10.731Z,68.50
2018-05-23T11:03:38.166Z,67.00
2018-05-23T11:06:05.577Z,62.47
2018-05-23T11:08:33.007Z,77.30
2018-05-23T11:11:00.424Z,67.20
2018-05-23T11:13:27.861Z,71.35
2018-05-23T11:15:55.280Z,79.80
2018-05-23T11:18:22.703Z,80.07
2018-05-23T11:20:50.122Z,81.97
2018-05-23T11:23:17.539Z,75.03
2018-05-23T11:25:44.986Z,50.67
2018-05-23T11:28:12.465Z,52.25
2018-05-23T11:30:39.879Z,51.50
2018-05-23T11:33:07.316Z,70.85
2018-05-23T11:35:34.730Z,66.97
2018-05-23T11:38:02.164Z,57.15
2018-05-23T11:40:29.580Z,54.40
2018-05-23T11:42:57.083Z,49.95
2018-05-23T11:45:24.496Z,71.35
2018-05-23T11:47:51.924Z,72.85
2018-05-23T11:50:19.349Z,55.80
2018-05-23T11:52:46.796Z,63.28
2018-05-23T11:55:14.204Z,61.03
2018-05-23T11:57:41.632Z,64.85
2018-05-23T12:00:09.044Z,60.40
2018-05-23T12:02:36.472Z,53.35
2018-05-23T12:05:03.893Z,62.03
2018-05-23T12:07:31.318Z,59.30
2018-05-23T12:09:58.736Z,65.87
2018-05-23T12:12:26.170Z,46.28
2018-05-23T12:14:53.589Z,46.70
2018-05-23T12:17:21.009Z,51.25
2018-05-23T12:19:48.420Z,43.15
2018-05-23T12:22:15.949Z,57.83
2018-05-23T12:24:43.378Z,65.22
2018-05-23T12:27:10.836Z,57.50
2018-05-23T12:29:38.253Z,41.88
2018-05-23T12:32:05.665Z,52.05
2018-05-23T12:34:33.098Z,73.97
2018-05-23T12:37:00.528Z,58.87
2018-05-23T12:39:27.957Z,55.33
2018-05-23T12:41:55.368Z,65.28
2018-05-23T12:44:22.803Z,48.85
2018-05-23T12:46:50.245Z,51.97
2018-05-23T12:49:17.670Z,49.47
2018-05-23T12:51:45.100Z,50.85
2018-05-23T12:54:12.567Z,68.87
2018-05-23T12:56:40.031Z,59.58
2018-05-23T12:59:07.485Z,61.42
2018-05-23T13:01:34.903Z,48.03
2018-05-23T13:04:02.393Z,67.43
2018-05-23T13:06:29.816Z,64.90
2018-05-23T13:08:57.312Z,41.17
2018-05-23T13:11:24.771Z,44.67
2018-05-23T13:13:52.223Z,47.30
2018-05-23T13:16:19.636Z,55.22
2018-05-23T13:18:47.120Z,62.22
2018-05-23T13:21:14.532Z,42.65
2018-05-23T13:23:41.953Z,44.53
2018-05-23T13:26:09.392Z,58.78
2018-05-23T13:28:36.826Z,66.62
2018-05-23T13:31:04.236Z,53.05
2018-05-23T13:33:31.662Z,55.22
2018-05-23T13:35:59.076Z,47.33
2018-05-23T13:38:26.500Z,35.10
2018-05-23T13:40:54.016Z,40.10
2018-05-23T13:43:21.448Z,31.50
2018-05-23T13:45:48.855Z,44.92
2018-05-23T13:48:16.283Z,42.05
2018-05-23T13:50:43.698Z,39.30
2018-05-23T13:53:11.129Z,62.35
2018-05-23T13:55:38.547Z,46.40
2018-05-23T13:58:05.984Z,45.70
2018-05-23T14:00:33.400Z,46.00
2018-05-23T14:03:00.824Z,62.97
2018-05-23T14:05:28.240Z,49.45
2018-05-23T14:07:55.684Z,50.03
2018-05-23T14:10:23.109Z,63.03
2018-05-23T14:12:50.540Z,48.53
2018-05-23T14:15:17.951Z,67.18
2018-05-23T14:17:45.384Z,37.80
2018-05-23T14:20:12.806Z,49.72
2018-05-23T14:22:40.229Z,40.42
2018-05-23T14:25:07.662Z,51.63
2018-05-23T14:27:35.076Z,50.20
2018-05-23T14:30:02.516Z,52.88
2018-05-23T14:32:29.944Z,57.50
2018-05-23T14:34:57.364Z,39.10
2018-05-23T14:37:24.782Z,52.65
2018-05-23T14:39:52.221Z,51.47
2018-05-23T14:42:19.627Z,65.15
2018-05-23T14:44:47.061Z,47.17
2018-05-23T14:47:14.482Z,52.17
2018-05-23T14:49:41.925Z,54.22
2018-05-23T14:52:09.348Z,31.60
2018-05-23T14:54:36.773Z,59.28
2018-05-23T14:57:04.196Z,56.08
2018-05-23T14:59:31.620Z,37.85
2018-05-23T15:01:59.045Z,62.33
2018-05-23T15:04:26.484Z,33.90
2018-05-23T15:06:53.901Z,31.83
2018-05-23T15:09:21.324Z,43.92
2018-05-23T15:11:48.747Z,42.85
2018-05-23T15:14:16.188Z,49.22
2018-05-23T15:16:43.596Z,32.83
2018-05-23T15:19:11.012Z,44.42
2018-05-23T15:21:38.441Z,44.13
2018-05-23T15:24:05.863Z,38.53
2018-05-23T15:26:33.280Z,39.22
2018-05-23T15:29:00.704Z,47.40
2018-05-23T15:31:28.212Z,30.88
2018-05-23T15:33:55.553Z,28.80
2018-05-23T15:36:22.969Z,33.45
2018-05-23T15:38:50.397Z,32.53
2018-05-23T15:41:17.857Z,41.13
2018-05-23T15:43:45.286Z,47.78
2018-05-23T15:46:12.701Z,46.92
2018-05-23T15:48:40.121Z,43.17
2018-05-23T15:51:07.559Z,41.20
2018-05-23T15:53:34.965Z,41.42
2018-05-23T15:56:02.406Z,38.65
2018-05-23T15:58:29.821Z,27.90
2018-05-23T16:00:57.253Z,26.80
2018-05-23T16:03:24.673Z,27.83
2018-05-23T16:05:52.097Z,28.50
2018-05-23T16:08:19.514Z,25.02
2018-05-23T16:10:46.934Z,34.08
2018-05-23T16:13:14.356Z,33.53
2018-05-23T16:15:41.772Z,25.23
2018-05-23T16:18:09.214Z,33.83
2018-05-23T16:20:36.667Z,33.38
2018-05-23T16:23:04.044Z,19.15
2018-05-23T16:25:31.488Z,20.85
2018-05-23T16:27:58.918Z,24.70
2018-05-23T16:30:26.342Z,20.70
2018-05-23T16:32:53.761Z,33.75
2018-05-23T16:35:21.187Z,23.17
2018-05-23T16:37:48.606Z,32.47
2018-05-23T16:40:16.036Z,29.67
2018-05-23T16:42:43.447Z,28.52
2018-05-23T16:45:10.888Z,23.50
2018-05-23T16:47:38.306Z,30.17
2018-05-23T16:50:05.736Z,29.90
2018-05-23T16:52:33.156Z,22.67
2018-05-23T16:55:09.265Z,21.12
2018-05-23T16:57:46.971Z,16.95
2018-05-23T17:00:14.612Z,24.67
2018-05-23T17:02:42.855Z,21.95
2018-05-23T17:05:10.276Z,25.20
2018-05-23T17:07:39.052Z,32.55
2018-05-23T17:10:06.475Z,29.52
2018-05-23T17:12:34.057Z,25.55
2018-05-23T17:15:01.413Z,30.35
2018-05-23T17:17:28.844Z,16.98
2018-05-23T17:19:56.265Z,22.23
2018-05-23T17:22:23.697Z,22.55
2018-05-23T17:24:51.877Z,24.80
2018-05-23T17:27:19.347Z,25.27
2018-05-23T17:29:46.716Z,28.83
2018-05-23T17:32:14.142Z,21.65
2018-05-23T17:34:41.572Z,24.95
2018-05-23T17:37:08.993Z,16.00
2018-05-23T17:39:36.411Z,16.42
2018-05-23T17:42:03.916Z,15.63
2018-05-23T17:44:31.340Z,26.73
2018-05-23T17:46:58.825Z,25.37
2018-05-23T17:49:26.241Z,30.35
2018-05-23T17:51:53.668Z,23.20
2018-05-23T17:54:21.097Z,24.37
2018-05-23T17:56:48.533Z,17.45
2018-05-23T17:59:15.952Z,16.98
2018-05-23T18:01:43.385Z,21.52
2018-05-23T18:04:10.796Z,18.95
2018-05-23T18:06:38.225Z,18.40
2018-05-23T18:09:05.645Z,28.20
2018-05-23T18:11:33.068Z,22.23
2018-05-23T18:14:00.531Z,21.87
2018-05-23T18:16:27.960Z,19.67
2018-05-23T18:18:55.453Z,26.73
2018-05-23T18:21:22.913Z,23.08
2018-05-23T18:23:50.425Z,21.65
2018-05-23T18:26:17.756Z,20.58
2018-05-23T18:28:45.169Z,17.40
2018-05-23T18:31:12.625Z,17.35
2018-05-23T18:33:40.045Z,17.73
2018-05-23T18:36:07.528Z,14.50
2018-05-23T18:38:34.940Z,13.43
2018-05-23T18:41:02.365Z,8.30
2018-05-23T18:43:29.865Z,13.00
2018-05-23T18:45:57.223Z,12.37
2018-05-23T18:48:24.636Z,21.40
2018-05-23T18:50:52.173Z,16.62
2018-05-23T18:53:19.585Z,3.60
2018-05-23T18:55:47.024Z,19.05
2018-05-23T18:58:14.529Z,12.70
2018-05-23T19:00:41.988Z,7.80
2018-05-23T19:03:09.449Z,16.45
2018-05-23T19:05:36.876Z,13.60
2018-05-23T19:08:04.308Z,19.33
2018-05-23T19:10:31.747Z,20.95
2018-05-23T19:12:59.173Z,17.77
2018-05-23T19:15:26.625Z,11.90
2018-05-23T19:17:54.081Z,8.95
2018-05-23T19:20:21.536Z,12.63
2018-05-23T19:22:48.965Z,16.70
2018-05-23T19:25:16.477Z,11.88
2018-05-23T19:27:43.964Z,15.82
2018-05-23T19:30:11.461Z,14.38
2018-05-23T19:32:38.877Z,9.85
2018-05-23T19:35:06.293Z,13.20
2018-05-23T19:37:33.825Z,8.43
2018-05-23T19:40:01.245Z,11.23
2018-05-23T19:42:28.680Z,11.95
2018-05-23T19:44:56.101Z,15.70
2018-05-23T19:47:23.532Z,12.02
2018-05-23T19:49:50.939Z,9.30
2018-05-23T19:52:18.357Z,13.32
2018-05-23T19:54:45.785Z,14.25
2018-05-23T19:57:13.208Z,8.60
2018-05-23T19:59:40.624Z,9.45
2018-05-23T20:02:08.100Z,10.85
2018-05-23T20:04:35.461Z,8.25
2018-05-23T20:07:02.883Z,14.75
2018-05-23T20:09:30.299Z,12.88
2018-05-23T20:11:57.724Z,15.73
2018-05-23T20:14:25.232Z,12.98
2018-05-23T20:16:52.572Z,9.70
2018-05-23T20:19:20.061Z,12.35
2018-05-23T20:21:47.503Z,12.52
2018-05-23T20:24:14.917Z,13.85
2018-05-23T20:26:42.343Z,10.90
2018-05-23T20:29:09.815Z,11.35
2018-05-23T20:31:37.234Z,10.30
2018-05-23T20:34:04.690Z,9.52
2018-05-23T20:36:32.100Z,8.85
2018-05-23T20:38:59.603Z,9.18
2018-05-23T20:41:27.058Z,11.45
2018-05-23T20:43:54.469Z,11.23
2018-05-23T20:46:21.907Z,10.55
2018-05-23T20:48:49.316Z,9.00
2018-05-23T20:51:16.764Z,7.97
2018-05-23T20:53:45.629Z,6.60
2018-05-23T20:56:13.050Z,7.22
2018-05-23T20:58:40.524Z,5.57
2018-05-23T21:01:07.894Z,8.93
2018-05-23T21:03:35.296Z,8.25
2018-05-23T21:06:02.705Z,6.60
2018-05-23T21:08:30.145Z,8.95
2018-05-23T21:10:57.565Z,13.02
2018-05-23T21:13:25.003Z,11.27
2018-05-23T21:15:52.407Z,8.45
2018-05-23T21:18:19.915Z,7.60
2018-05-23T21:20:47.332Z,11.73
2018-05-23T21:23:14.745Z,8.00
2018-05-23T21:25:42.177Z,10.15
2018-05-23T21:28:09.602Z,9.68
2018-05-23T21:30:37.012Z,9.90
2018-05-23T21:33:04.439Z,10.02
2018-05-23T21:35:31.870Z,12.68
2018-05-23T21:37:59.328Z,10.07
2018-05-23T21:40:26.733Z,8.18
2018-05-23T21:42:54.152Z,7.32
2018-05-23T21:45:21.556Z,7.68
2018-05-23T21:47:48.972Z,7.82
2018-05-23T21:50:16.393Z,13.02
2018-05-23T21:52:43.820Z,10.13
2018-05-23T21:55:11.236Z,8.70
2018-05-23T21:57:38.665Z,8.88
2018-05-23T22:00:06.068Z,7.53
2018-05-23T22:02:33.495Z,8.65
2018-05-23T22:05:00.908Z,7.05
2018-05-23T22:07:28.324Z,8.63
2018-05-23T22:09:55.735Z,5.37
2018-05-23T22:12:23.156Z,4.68
2018-05-23T22:14:50.572Z,6.72
2018-05-23T22:17:17.997Z,3.40
2018-05-23T22:19:45.405Z,4.50
2018-05-23T22:22:12.831Z,3.83
2018-05-23T22:24:40.417Z,5.18
2018-05-23T22:27:07.671Z,6.12
2018-05-23T22:29:35.092Z,4.28
2018-05-23T22:32:02.504Z,3.83
2018-05-23T22:34:29.927Z,5.80
2018-05-23T22:36:57.328Z,5.72
2018-05-23T22:39:24.750Z,3.33
2018-05-23T22:41:52.164Z,4.62
2018-05-23T22:44:19.580Z,4.45
2018-05-23T22:46:46.993Z,4.37
2018-05-23T22:49:14.425Z,4.97
2018-05-23T22:51:41.841Z,3.97
2018-05-23T22:54:09.256Z,7.30
2018-05-23T22:56:36.665Z,7.18
2018-05-23T22:59:04.080Z,8.48
2018-05-23T23:01:31.501Z,10.15
2018-05-23T23:03:58.969Z,4.97
2018-05-23T23:06:26.381Z,5.32
2018-05-23T23:08:53.820Z,5.72
2018-05-23T23:11:21.232Z,2.97
2018-05-23T23:13:48.646Z,4.80
2018-05-23T23:16:16.052Z,6.25
2018-05-23T23:18:43.469Z,4.82
2018-05-23T23:21:10.913Z,5.25
2018-05-23T23:23:38.328Z,4.53
2018-05-23T23:26:05.742Z,4.45
2018-05-23T23:28:33.166Z,5.10
2018-05-23T23:31:00.570Z,4.82
2018-05-23T23:33:27.985Z,4.55
2018-05-23T23:35:55.389Z,4.80
2018-05-23T23:38:22.825Z,3.90
2018-05-23T23:40:50.232Z,4.60
2018-05-23T23:43:17.644Z,4.47
2018-05-23T23:45:45.093Z,5.55
2018-05-23T23:48:12.512Z,5.20
2018-05-23T23:50:39.916Z,5.15
2018-05-23T23:53:07.351Z,6.12
2018-05-23T23:55:34.762Z,3.70
2018-05-23T23:58:02.178Z,4.07
